Kine — C6WT4 — position and weather

sailwx.info

Track history (hours):
 
Tides and Currents Weather Stations Pressure Air Temp Water Temp Dewpoint Dewpoint Depression Visibility Wind Speed Wind Dir Waves Ship Positions

Kine

Last reported at 2014-Jul-27 22:04 UTC. Time now 2014-Jul-28 10:27 UTC.
Position N 64°22' E 009°15'.

Length 89 m; draft 3.4 m.

Type: Cargo ship. MMSI: 311117000.

Date/timePositionNaut miles runAvg speedWind from/ knotsBaromVisibWave heightAir tempDewpointWater temp
2014-Jul-27 22:04N 64°22' E 009°15'136 4.3
2014-Jul-26 14:17N 66°25' E 011°38'6 8.1
2014-Jul-26 13:31N 66°30' E 011°47'9 8.1
2014-Jul-26 12:23N 66°37' E 011°59'  
2014-Jul-21 11:14N 66°39' E 011°59'810.0
2014-Jul-21 10:26N 66°32' E 011°48'476 9.4
2014-Jul-19 07:33N 59°14' E 005°01'9 9.0
2014-Jul-19 06:33N 59°07' E 005°12'10 9.8
2014-Jul-19 05:33N 59°06' E 005°32'9 9.0
2014-Jul-19 04:33N 59°01' E 005°45'4 3.9
2014-Jul-19 03:31N 58°57' E 005°45'0 0.0
2014-Jul-19 02:31N 58°57' E 005°45'0 0.0
2014-Jul-19 01:31N 58°57' E 005°45'0 0.0
2014-Jul-19 00:28N 58°57' E 005°45'0 0.0
2014-Jul-18 23:31N 58°57' E 005°45'0 0.2
2014-Jul-18 22:33N 58°57' E 005°46'6 6.1
2014-Jul-18 21:33N 59°02' E 005°38'6 6.5
2014-Jul-18 20:33N 58°56' E 005°33'8 8.0
2014-Jul-18 19:33N 58°48' E 005°28'25 7.0
2014-Jul-18 16:04N 58°24' E 005°26'7 8.6
2014-Jul-18 15:17N 58°17' E 005°28'  
Track history (hours):
 
Tides and Currents Weather Stations Pressure Air Temp Water Temp Dewpoint Dewpoint Depression Visibility Wind Speed Wind Dir Waves Ship Positions

Kine

Last reported at 2014-Jul-27 22:04 UTC. Time now 2014-Jul-28 10:27 UTC.
Position N 64°22' E 009°15'.

Length 89 m; draft 3.4 m.

Type: Cargo ship. MMSI: 311117000.

Date/timePositionNaut miles runAvg speedWind from/ knotsBaromVisibWave heightAir tempDewpointWater temp
2014-Jul-27 22:04N 64°22' E 009°15'136 4.3
2014-Jul-26 14:17N 66°25' E 011°38'6 8.1
2014-Jul-26 13:31N 66°30' E 011°47'9 8.1
2014-Jul-26 12:23N 66°37' E 011°59'  
2014-Jul-21 11:14N 66°39' E 011°59'810.0
2014-Jul-21 10:26N 66°32' E 011°48'476 9.4
2014-Jul-19 07:33N 59°14' E 005°01'9 9.0
2014-Jul-19 06:33N 59°07' E 005°12'10 9.8
2014-Jul-19 05:33N 59°06' E 005°32'9 9.0
2014-Jul-19 04:33N 59°01' E 005°45'4 3.9
2014-Jul-19 03:31N 58°57' E 005°45'0 0.0
2014-Jul-19 02:31N 58°57' E 005°45'0 0.0
2014-Jul-19 01:31N 58°57' E 005°45'0 0.0
2014-Jul-19 00:28N 58°57' E 005°45'0 0.0
2014-Jul-18 23:31N 58°57' E 005°45'0 0.2
2014-Jul-18 22:33N 58°57' E 005°46'6 6.1
2014-Jul-18 21:33N 59°02' E 005°38'6 6.5
2014-Jul-18 20:33N 58°56' E 005°33'8 8.0
2014-Jul-18 19:33N 58°48' E 005°28'25 7.0
2014-Jul-18 16:04N 58°24' E 005°26'7 8.6
2014-Jul-18 15:17N 58°17' E 005°28'  

Dump ship's entire track history